F/V Barracuda II — FMIF — position and weather

sailwx.info

Track history (hours):
 
Tides and Currents Weather Stations Pressure Air Temp Water Temp Dewpoint Dewpoint Depression Visibility Wind Speed Wind Dir Waves Ship Positions

F/V Barracuda II

Last reported at 2017-May-26 10:53 UTC. Time now 2017-May-28 00:51 UTC.
Position N 43°24' E 004°26'.

Length 18 m.

Type: Fishing. MMSI: 228236800.

Date/timePositionNaut miles runAvg speedWind from/ knotsBaromVisibWave heightAir tempDewpointWater temp
2017-May-26 10:53N 43°24' E 004°26'1 3.8
2017-May-26 10:30N 43°24' E 004°28'1 2.1
2017-May-26 10:00N 43°23' E 004°29'1 2.3
2017-May-26 09:29N 43°23' E 004°27'1 3.1
2017-May-26 09:00N 43°24' E 004°26'6 2.8
2017-May-26 06:51N 43°20' E 004°32'2 3.2
2017-May-26 06:12N 43°19' E 004°34'1 4.1
2017-May-26 06:00N 43°19' E 004°33'2 4.1
2017-May-26 05:29N 43°20' E 004°31'3 3.7
2017-May-26 04:45N 43°23' E 004°29'1 3.6
2017-May-26 04:28N 43°23' E 004°28'2 3.9
2017-May-26 04:01N 43°24' E 004°26'2 3.9
2017-May-26 03:28N 43°24' E 004°23'13 0.4
2017-May-24 13:48N 43°30' E 004°06'310.4
2017-May-24 13:30N 43°27' E 004°08'8 5.4
2017-May-24 11:57N 43°24' E 004°19'2 3.8
2017-May-24 11:30N 43°24' E 004°21'2 3.8
2017-May-24 11:00N 43°24' E 004°24'2 3.8
2017-May-24 10:30N 43°23' E 004°26'6 1.2
2017-May-24 05:47N 43°19' E 004°32'3 3.9
2017-May-24 04:57N 43°22' E 004°30'2 3.6
2017-May-24 04:30N 43°23' E 004°28'2 3.9
2017-May-24 04:00N 43°24' E 004°26'2 3.9
2017-May-24 03:30N 43°24' E 004°23'5 3.8
2017-May-24 02:15N 43°24' E 004°16'5 0.4
2017-May-23 14:00N 43°26' E 004°09'20 2.6
2017-May-23 06:20N 43°18' E 004°35'1 3.5
2017-May-23 06:00N 43°19' E 004°33'2 4.2
2017-May-23 05:30N 43°20' E 004°31'2 3.9
2017-May-23 04:53N 43°22' E 004°29'1 3.6
2017-May-23 04:31N 43°23' E 004°28'2 3.9
2017-May-23 04:00N 43°23' E 004°25'15 1.2
2017-May-22 14:53N 43°32' E 004°08'8 9.5
2017-May-22 14:00N 43°24' E 004°11'7 7.3
2017-May-22 12:59N 43°18' E 004°17'2 3.8
2017-May-22 12:30N 43°17' E 004°20'2 3.9
2017-May-22 12:00N 43°17' E 004°22'2 3.9
2017-May-22 11:30N 43°16' E 004°24'3 3.9
2017-May-22 10:42N 43°15' E 004°29'1 3.9
2017-May-22 10:30N 43°15' E 004°30'1 2.0
2017-May-22 09:58N 43°15' E 004°31'2 2.7
2017-May-22 09:23N 43°15' E 004°33'1 3.8
2017-May-22 09:00N 43°14' E 004°35'2 3.8
2017-May-22 08:26N 43°12' E 004°37'2 3.1
2017-May-22 07:49N 43°13' E 004°39'2 3.9
2017-May-22 07:16N 43°15' E 004°37'1 3.9
2017-May-22 06:59N 43°16' E 004°36'3 6.1
2017-May-22 06:30N 43°18' E 004°33'2 2.6
2017-May-22 05:48N 43°20' E 004°32'2 4.0
2017-May-22 05:17N 43°21' E 004°30'2 3.9
2017-May-22 04:54N 43°22' E 004°29'2 3.7
2017-May-22 04:15N 43°23' E 004°26'2 3.9
2017-May-22 03:42N 43°24' E 004°23'1 3.9
2017-May-22 03:30N 43°24' E 004°22'  
2017-May-19 13:59N 43°24' E 004°11'22 4.1
2017-May-19 08:38N 43°10' E 004°36'1 4.0
2017-May-19 08:29N 43°10' E 004°36'3 3.5
2017-May-19 07:44N 43°12' E 004°39'1 3.9
2017-May-19 07:30N 43°13' E 004°39'2 3.9
2017-May-19 06:58N 43°15' E 004°37'4 7.1
2017-May-19 06:28N 43°18' E 004°35'3 3.3
2017-May-19 05:28N 43°20' E 004°31'4 3.7
2017-May-19 04:21N 43°23' E 004°28'1 3.8
2017-May-19 04:01N 43°23' E 004°26'2 3.9
2017-May-19 03:24N 43°24' E 004°23'14 1.1
2017-May-18 14:42N 43°31' E 004°06'210.9
2017-May-18 14:30N 43°29' E 004°07'17 8.0
2017-May-18 12:26N 43°14' E 004°18'9 3.8
2017-May-18 10:07N 43°10' E 004°29'0 3.5
2017-May-18 10:00N 43°11' E 004°29'1 2.6
2017-May-18 09:27N 43°10' E 004°31'2 3.9
2017-May-18 09:00N 43°10' E 004°34'2 3.9
2017-May-18 08:30N 43°10' E 004°36'2 3.6
2017-May-18 08:00N 43°11' E 004°38'2 3.9
2017-May-18 07:30N 43°13' E 004°39'2 4.0
2017-May-18 07:00N 43°15' E 004°37'3 7.1
2017-May-18 06:30N 43°18' E 004°35'1 2.9
2017-May-18 06:01N 43°19' E 004°34'2 4.1
2017-May-18 05:30N 43°20' E 004°31'2 3.9
2017-May-18 04:59N 43°22' E 004°30'2 3.6
2017-May-18 04:30N 43°23' E 004°28'2 3.9
2017-May-18 04:00N 43°24' E 004°26'2 3.9
2017-May-18 03:30N 43°24' E 004°23'12 0.9
2017-May-17 14:27N 43°27' E 004°07'16 7.9
2017-May-17 12:27N 43°13' E 004°16'8 3.9
2017-May-17 10:24N 43°08' E 004°25'4 3.3
2017-May-17 09:08N 43°08' E 004°30'5 3.8
2017-May-17 07:46N 43°12' E 004°33'6 4.9
2017-May-17 06:28N 43°19' E 004°35'7 3.4
2017-May-17 04:29N 43°23' E 004°28'  
Track history (hours):
 
Tides and Currents Weather Stations Pressure Air Temp Water Temp Dewpoint Dewpoint Depression Visibility Wind Speed Wind Dir Waves Ship Positions

F/V Barracuda II

Last reported at 2017-May-26 10:53 UTC. Time now 2017-May-28 00:51 UTC.
Position N 43°24' E 004°26'.

Length 18 m.

Type: Fishing. MMSI: 228236800.

Date/timePositionNaut miles runAvg speedWind from/ knotsBaromVisibWave heightAir tempDewpointWater temp
2017-May-26 10:53N 43°24' E 004°26'1 3.8
2017-May-26 10:30N 43°24' E 004°28'1 2.1
2017-May-26 10:00N 43°23' E 004°29'1 2.3
2017-May-26 09:29N 43°23' E 004°27'1 3.1
2017-May-26 09:00N 43°24' E 004°26'6 2.8
2017-May-26 06:51N 43°20' E 004°32'2 3.2
2017-May-26 06:12N 43°19' E 004°34'1 4.1
2017-May-26 06:00N 43°19' E 004°33'2 4.1
2017-May-26 05:29N 43°20' E 004°31'3 3.7
2017-May-26 04:45N 43°23' E 004°29'1 3.6
2017-May-26 04:28N 43°23' E 004°28'2 3.9
2017-May-26 04:01N 43°24' E 004°26'2 3.9
2017-May-26 03:28N 43°24' E 004°23'13 0.4
2017-May-24 13:48N 43°30' E 004°06'310.4
2017-May-24 13:30N 43°27' E 004°08'8 5.4
2017-May-24 11:57N 43°24' E 004°19'2 3.8
2017-May-24 11:30N 43°24' E 004°21'2 3.8
2017-May-24 11:00N 43°24' E 004°24'2 3.8
2017-May-24 10:30N 43°23' E 004°26'6 1.2
2017-May-24 05:47N 43°19' E 004°32'3 3.9
2017-May-24 04:57N 43°22' E 004°30'2 3.6
2017-May-24 04:30N 43°23' E 004°28'2 3.9
2017-May-24 04:00N 43°24' E 004°26'2 3.9
2017-May-24 03:30N 43°24' E 004°23'5 3.8
2017-May-24 02:15N 43°24' E 004°16'5 0.4
2017-May-23 14:00N 43°26' E 004°09'20 2.6
2017-May-23 06:20N 43°18' E 004°35'1 3.5
2017-May-23 06:00N 43°19' E 004°33'2 4.2
2017-May-23 05:30N 43°20' E 004°31'2 3.9
2017-May-23 04:53N 43°22' E 004°29'1 3.6
2017-May-23 04:31N 43°23' E 004°28'2 3.9
2017-May-23 04:00N 43°23' E 004°25'15 1.2
2017-May-22 14:53N 43°32' E 004°08'8 9.5
2017-May-22 14:00N 43°24' E 004°11'7 7.3
2017-May-22 12:59N 43°18' E 004°17'2 3.8
2017-May-22 12:30N 43°17' E 004°20'2 3.9
2017-May-22 12:00N 43°17' E 004°22'2 3.9
2017-May-22 11:30N 43°16' E 004°24'3 3.9
2017-May-22 10:42N 43°15' E 004°29'1 3.9
2017-May-22 10:30N 43°15' E 004°30'1 2.0
2017-May-22 09:58N 43°15' E 004°31'2 2.7
2017-May-22 09:23N 43°15' E 004°33'1 3.8
2017-May-22 09:00N 43°14' E 004°35'2 3.8
2017-May-22 08:26N 43°12' E 004°37'2 3.1
2017-May-22 07:49N 43°13' E 004°39'2 3.9
2017-May-22 07:16N 43°15' E 004°37'1 3.9
2017-May-22 06:59N 43°16' E 004°36'3 6.1
2017-May-22 06:30N 43°18' E 004°33'2 2.6
2017-May-22 05:48N 43°20' E 004°32'2 4.0
2017-May-22 05:17N 43°21' E 004°30'2 3.9
2017-May-22 04:54N 43°22' E 004°29'2 3.7
2017-May-22 04:15N 43°23' E 004°26'2 3.9
2017-May-22 03:42N 43°24' E 004°23'1 3.9
2017-May-22 03:30N 43°24' E 004°22'  
2017-May-19 13:59N 43°24' E 004°11'22 4.1
2017-May-19 08:38N 43°10' E 004°36'1 4.0
2017-May-19 08:29N 43°10' E 004°36'3 3.5
2017-May-19 07:44N 43°12' E 004°39'1 3.9
2017-May-19 07:30N 43°13' E 004°39'2 3.9
2017-May-19 06:58N 43°15' E 004°37'4 7.1
2017-May-19 06:28N 43°18' E 004°35'3 3.3
2017-May-19 05:28N 43°20' E 004°31'4 3.7
2017-May-19 04:21N 43°23' E 004°28'1 3.8
2017-May-19 04:01N 43°23' E 004°26'2 3.9
2017-May-19 03:24N 43°24' E 004°23'14 1.1
2017-May-18 14:42N 43°31' E 004°06'210.9
2017-May-18 14:30N 43°29' E 004°07'17 8.0
2017-May-18 12:26N 43°14' E 004°18'9 3.8
2017-May-18 10:07N 43°10' E 004°29'0 3.5
2017-May-18 10:00N 43°11' E 004°29'1 2.6
2017-May-18 09:27N 43°10' E 004°31'2 3.9
2017-May-18 09:00N 43°10' E 004°34'2 3.9
2017-May-18 08:30N 43°10' E 004°36'2 3.6
2017-May-18 08:00N 43°11' E 004°38'2 3.9
2017-May-18 07:30N 43°13' E 004°39'2 4.0
2017-May-18 07:00N 43°15' E 004°37'3 7.1
2017-May-18 06:30N 43°18' E 004°35'1 2.9
2017-May-18 06:01N 43°19' E 004°34'2 4.1
2017-May-18 05:30N 43°20' E 004°31'2 3.9
2017-May-18 04:59N 43°22' E 004°30'2 3.6
2017-May-18 04:30N 43°23' E 004°28'2 3.9
2017-May-18 04:00N 43°24' E 004°26'2 3.9
2017-May-18 03:30N 43°24' E 004°23'12 0.9
2017-May-17 14:27N 43°27' E 004°07'16 7.9
2017-May-17 12:27N 43°13' E 004°16'8 3.9
2017-May-17 10:24N 43°08' E 004°25'4 3.3
2017-May-17 09:08N 43°08' E 004°30'5 3.8
2017-May-17 07:46N 43°12' E 004°33'6 4.9
2017-May-17 06:28N 43°19' E 004°35'7 3.4
2017-May-17 04:29N 43°23' E 004°28'  

Dump ship's entire track history